createdAt,value
2019-03-26T00:01:09.272Z,7.30
2019-03-26T00:03:42.985Z,6.60
2019-03-26T00:06:16.947Z,7.80
2019-03-26T00:08:50.865Z,7.45
2019-03-26T00:11:24.658Z,7.10
2019-03-26T00:13:57.948Z,8.13
2019-03-26T00:16:31.888Z,8.08
2019-03-26T00:19:03.827Z,7.53
2019-03-26T00:21:35.917Z,7.60
2019-03-26T00:24:07.773Z,7.30
2019-03-26T00:26:39.660Z,8.10
2019-03-26T00:29:13.648Z,10.65
2019-03-26T00:31:46.666Z,8.40
2019-03-26T00:34:19.782Z,8.90
2019-03-26T00:36:54.789Z,8.90
2019-03-26T00:39:27.903Z,10.10
2019-03-26T00:42:00.862Z,10.93
2019-03-26T00:44:33.976Z,9.80
2019-03-26T00:47:06.897Z,10.20
2019-03-26T00:49:39.838Z,9.70
2019-03-26T00:52:13.014Z,10.80
2019-03-26T00:54:46.915Z,10.00
2019-03-26T00:57:18.841Z,10.32
2019-03-26T00:59:53.384Z,9.67
2019-03-26T01:02:26.831Z,10.60
2019-03-26T01:05:00.036Z,8.90
2019-03-26T01:07:34.013Z,10.18
2019-03-26T01:10:06.827Z,11.20
2019-03-26T01:12:41.112Z,10.73
2019-03-26T01:15:14.281Z,15.08
2019-03-26T01:17:46.515Z,13.40
2019-03-26T01:20:18.469Z,16.20
2019-03-26T01:22:51.105Z,16.10
2019-03-26T01:25:22.958Z,13.58
2019-03-26T01:27:55.076Z,13.60
2019-03-26T01:30:28.034Z,12.27
2019-03-26T01:33:02.621Z,13.07
2019-03-26T01:35:37.078Z,13.10
2019-03-26T01:38:11.063Z,12.90
2019-03-26T01:40:43.630Z,12.70
2019-03-26T01:43:18.093Z,10.37
2019-03-26T01:45:52.077Z,10.73
2019-03-26T01:48:25.215Z,11.30
2019-03-26T01:50:57.126Z,13.43
2019-03-26T01:53:29.077Z,12.87
2019-03-26T01:56:01.250Z,11.80
2019-03-26T01:58:34.207Z,12.97
2019-03-26T02:01:08.080Z,11.93
2019-03-26T02:03:40.211Z,12.90
2019-03-26T02:06:13.312Z,11.57
2019-03-26T02:08:45.196Z,13.30
2019-03-26T02:11:18.693Z,12.73
2019-03-26T02:13:52.312Z,13.40
2019-03-26T02:16:25.367Z,12.47
2019-03-26T02:18:58.945Z,12.80
2019-03-26T02:21:31.309Z,12.60
2019-03-26T02:24:05.035Z,13.80
2019-03-26T02:26:37.453Z,13.20
2019-03-26T02:29:10.394Z,13.60
2019-03-26T02:31:43.488Z,13.73
2019-03-26T02:34:16.433Z,13.60
2019-03-26T02:36:49.448Z,14.50
2019-03-26T02:39:22.892Z,15.30
2019-03-26T02:41:56.805Z,15.80
2019-03-26T02:44:31.416Z,16.10
2019-03-26T02:47:04.506Z,17.17
2019-03-26T02:49:37.755Z,15.80
2019-03-26T02:52:10.456Z,17.93
2019-03-26T02:54:43.986Z,17.10
2019-03-26T02:57:18.450Z,15.57
2019-03-26T02:59:50.679Z,19.37
2019-03-26T03:02:22.810Z,16.90
2019-03-26T03:04:55.632Z,16.37
2019-03-26T03:07:28.589Z,18.17
2019-03-26T03:10:01.810Z,17.77
2019-03-26T03:12:36.193Z,16.97
2019-03-26T03:15:11.216Z,18.70
2019-03-26T03:17:45.560Z,19.13
2019-03-26T03:20:18.776Z,19.27
2019-03-26T03:22:52.655Z,17.10
2019-03-26T03:25:26.697Z,17.23
2019-03-26T03:27:58.629Z,16.47
2019-03-26T03:30:31.755Z,16.40
2019-03-26T03:33:04.703Z,15.77
2019-03-26T03:35:51.248Z,16.60
2019-03-26T03:38:10.569Z,16.60
2019-03-26T03:40:43.793Z,14.70
2019-03-26T03:43:16.024Z,15.47
2019-03-26T03:45:48.914Z,15.47
2019-03-26T03:48:24.058Z,15.27
2019-03-26T03:50:58.840Z,15.13
2019-03-26T03:53:32.805Z,15.10
2019-03-26T03:56:05.515Z,14.30
2019-03-26T03:58:41.010Z,15.10
2019-03-26T04:01:14.904Z,15.30
2019-03-26T04:03:48.421Z,14.87
2019-03-26T04:06:21.968Z,14.70
2019-03-26T04:08:55.977Z,14.17
2019-03-26T04:11:29.994Z,14.93
2019-03-26T04:14:01.877Z,13.53
2019-03-26T04:16:33.947Z,15.97
2019-03-26T04:19:07.053Z,15.00
2019-03-26T04:21:40.905Z,15.00
2019-03-26T04:24:13.994Z,13.57
2019-03-26T04:26:47.977Z,15.13
2019-03-26T04:29:21.894Z,15.10
2019-03-26T04:31:56.129Z,15.27
2019-03-26T04:34:32.509Z,16.77
2019-03-26T04:37:06.040Z,15.53
2019-03-26T04:39:40.030Z,16.33
2019-03-26T04:42:14.235Z,15.93
2019-03-26T04:44:47.083Z,16.40
2019-03-26T04:47:19.096Z,16.33
2019-03-26T04:49:52.038Z,15.47
2019-03-26T04:52:24.990Z,15.03
2019-03-26T04:54:58.949Z,14.73
2019-03-26T04:57:31.135Z,15.50
2019-03-26T05:00:04.636Z,14.80
2019-03-26T05:02:38.155Z,15.10
2019-03-26T05:05:12.382Z,14.23
2019-03-26T05:07:46.107Z,14.00
2019-03-26T05:10:18.203Z,15.00
2019-03-26T05:12:51.177Z,15.03
2019-03-26T05:15:24.301Z,14.70
2019-03-26T05:17:56.848Z,14.53
2019-03-26T05:20:31.179Z,14.97
2019-03-26T05:23:04.082Z,14.87
2019-03-26T05:25:37.971Z,15.37
2019-03-26T05:28:10.237Z,15.60
2019-03-26T05:30:43.170Z,15.10
2019-03-26T05:33:16.236Z,14.73
2019-03-26T05:35:51.486Z,16.47
2019-03-26T05:38:23.273Z,15.00
2019-03-26T05:40:55.506Z,15.28
2019-03-26T05:43:28.265Z,15.67
2019-03-26T05:46:01.426Z,15.60
2019-03-26T05:48:34.391Z,15.13
2019-03-26T05:51:07.468Z,13.93
2019-03-26T05:53:40.431Z,14.87
2019-03-26T05:56:12.307Z,14.30
2019-03-26T05:58:45.530Z,13.60
2019-03-26T06:01:18.481Z,14.87
2019-03-26T06:03:50.686Z,14.20
2019-03-26T06:06:23.345Z,14.00
2019-03-26T06:08:55.776Z,14.60
2019-03-26T06:11:28.583Z,14.63
2019-03-26T06:14:01.436Z,13.37
2019-03-26T06:16:38.575Z,14.87
2019-03-26T06:19:08.656Z,13.60
2019-03-26T06:21:43.445Z,14.10
2019-03-26T06:24:17.437Z,14.50
2019-03-26T06:26:49.991Z,14.60
2019-03-26T06:29:22.619Z,14.50
2019-03-26T06:31:59.057Z,13.67
2019-03-26T06:34:33.119Z,13.20
2019-03-26T06:37:17.450Z,15.20
2019-03-26T06:39:42.707Z,13.37
2019-03-26T06:42:17.517Z,13.83
2019-03-26T06:44:50.520Z,13.20
2019-03-26T06:47:24.113Z,14.57
2019-03-26T06:49:58.553Z,13.93
2019-03-26T06:52:31.374Z,14.83
2019-03-26T06:55:04.176Z,13.47
2019-03-26T06:57:37.170Z,12.97
2019-03-26T07:00:12.514Z,14.00
2019-03-26T07:02:49.930Z,12.60
2019-03-26T07:05:23.094Z,12.20
2019-03-26T07:07:55.765Z,14.03
2019-03-26T07:10:29.522Z,12.90
2019-03-26T07:13:03.602Z,14.40
2019-03-26T07:15:37.772Z,13.80
2019-03-26T07:18:11.892Z,14.40
2019-03-26T07:20:45.695Z,13.13
2019-03-26T07:23:20.380Z,13.97
2019-03-26T07:25:54.423Z,12.27
2019-03-26T07:28:28.647Z,13.90
2019-03-26T07:31:03.303Z,13.17
2019-03-26T07:33:37.634Z,13.70
2019-03-26T07:36:11.666Z,13.07
2019-03-26T07:38:43.613Z,15.38
2019-03-26T07:41:15.911Z,13.90
2019-03-26T07:43:49.797Z,12.90
2019-03-26T07:46:23.836Z,12.93
2019-03-26T07:48:57.643Z,11.80
2019-03-26T07:51:34.697Z,12.17
2019-03-26T07:54:08.312Z,13.43
2019-03-26T07:56:43.381Z,13.33
2019-03-26T07:59:19.898Z,12.13
2019-03-26T08:01:54.512Z,11.90
2019-03-26T08:04:33.645Z,11.50
2019-03-26T08:07:07.807Z,12.00
2019-03-26T08:09:40.261Z,10.80
2019-03-26T08:12:15.063Z,10.70
2019-03-26T08:14:55.719Z,11.63
2019-03-26T08:17:45.269Z,11.07
2019-03-26T08:20:20.374Z,9.13
2019-03-26T08:22:54.023Z,10.17
2019-03-26T08:25:26.081Z,9.95
2019-03-26T08:28:01.027Z,10.20
2019-03-26T08:30:36.163Z,9.93
2019-03-26T08:33:11.218Z,10.70
2019-03-26T08:35:44.196Z,10.67
2019-03-26T08:38:17.130Z,9.93
2019-03-26T08:40:50.571Z,9.63
2019-03-26T08:43:29.829Z,10.05
2019-03-26T08:46:02.197Z,8.90
2019-03-26T08:48:35.136Z,9.60
2019-03-26T08:51:08.593Z,11.00
2019-03-26T08:53:42.570Z,9.43
2019-03-26T08:56:16.788Z,10.03
2019-03-26T08:58:54.915Z,9.83
2019-03-26T09:01:29.213Z,8.90
2019-03-26T09:04:09.246Z,7.93
2019-03-26T09:06:43.473Z,8.10
2019-03-26T09:09:20.608Z,8.07
2019-03-26T09:11:54.258Z,7.17
2019-03-26T09:14:26.760Z,7.60
2019-03-26T09:16:59.818Z,7.77
2019-03-26T09:19:33.853Z,7.83
2019-03-26T09:22:12.268Z,8.20
2019-03-26T09:24:50.949Z,6.57
2019-03-26T09:27:26.050Z,6.37
2019-03-26T09:30:01.980Z,6.17
2019-03-26T09:32:37.932Z,7.00
2019-03-26T09:35:11.628Z,6.23
2019-03-26T09:37:44.317Z,6.30
2019-03-26T09:40:22.356Z,6.30
2019-03-26T09:42:56.254Z,5.50
2019-03-26T09:45:30.933Z,5.23
2019-03-26T09:48:08.909Z,4.27
2019-03-26T09:50:41.952Z,4.53
2019-03-26T09:53:18.768Z,4.60
2019-03-26T09:55:53.522Z,4.07
2019-03-26T09:58:36.805Z,4.90
2019-03-26T10:01:14.196Z,4.23
2019-03-26T10:03:52.936Z,4.70
2019-03-26T10:06:33.725Z,3.60
2019-03-26T10:09:11.748Z,3.17
2019-03-26T10:11:44.845Z,2.50
2019-03-26T10:14:20.670Z,2.87
2019-03-26T10:16:56.484Z,3.70
2019-03-26T10:19:33.134Z,3.53
2019-03-26T10:22:07.776Z,4.20
2019-03-26T10:24:43.194Z,5.00
2019-03-26T10:27:18.379Z,4.58
2019-03-26T10:29:55.601Z,4.30
2019-03-26T10:32:30.554Z,4.77
2019-03-26T10:35:07.625Z,4.92
2019-03-26T10:37:41.263Z,4.93
2019-03-26T10:40:30.425Z,4.20
2019-03-26T10:43:04.557Z,4.43
2019-03-26T10:45:37.944Z,4.50
2019-03-26T10:48:21.677Z,3.80
2019-03-26T10:50:55.205Z,3.70
2019-03-26T10:53:35.426Z,4.45
2019-03-26T10:56:14.941Z,3.77
2019-03-26T10:58:50.136Z,3.70
2019-03-26T11:01:23.566Z,4.17
2019-03-26T11:04:01.972Z,4.40
2019-03-26T11:06:38.856Z,4.13
2019-03-26T11:09:21.366Z,3.95
2019-03-26T11:11:51.234Z,4.30
2019-03-26T11:14:43.053Z,5.30
2019-03-26T11:17:19.228Z,5.73
2019-03-26T11:19:53.433Z,4.50
2019-03-26T11:22:28.308Z,4.20
2019-03-26T11:25:02.366Z,3.92
2019-03-26T11:27:34.920Z,3.87
2019-03-26T11:30:08.655Z,4.60
2019-03-26T11:32:44.383Z,3.80
2019-03-26T11:35:16.939Z,4.27
2019-03-26T11:37:51.537Z,3.60
2019-03-26T11:40:32.905Z,3.40
2019-03-26T11:43:05.882Z,4.10
2019-03-26T11:45:37.775Z,4.50
2019-03-26T11:48:11.858Z,4.30
2019-03-26T11:50:45.971Z,5.00
2019-03-26T11:53:21.138Z,5.53
2019-03-26T11:55:56.141Z,5.73
2019-03-26T11:58:30.783Z,4.50
2019-03-26T12:01:08.135Z,4.40
2019-03-26T12:03:46.332Z,4.40
2019-03-26T12:06:19.817Z,4.90
2019-03-26T12:08:52.124Z,4.87
2019-03-26T12:11:27.184Z,4.62
2019-03-26T12:14:03.527Z,4.20
2019-03-26T12:16:40.852Z,4.90
2019-03-26T12:19:13.010Z,4.50
2019-03-26T12:21:47.028Z,5.40
2019-03-26T12:24:19.519Z,4.93
2019-03-26T12:26:53.128Z,4.53
2019-03-26T12:29:27.512Z,4.73
2019-03-26T12:31:59.845Z,5.00
2019-03-26T12:34:32.174Z,5.13
2019-03-26T12:37:06.363Z,5.20
2019-03-26T12:39:40.425Z,5.17
2019-03-26T12:42:15.096Z,5.07
2019-03-26T12:44:49.057Z,4.53
2019-03-26T12:47:23.017Z,6.03
2019-03-26T12:49:56.684Z,6.37
2019-03-26T12:52:29.250Z,5.20
2019-03-26T12:55:02.997Z,6.30
2019-03-26T12:57:35.300Z,8.50
2019-03-26T13:00:11.472Z,16.17
2019-03-26T13:02:45.295Z,6.80
2019-03-26T13:05:23.209Z,6.87
2019-03-26T13:07:58.057Z,7.40
2019-03-26T13:10:29.974Z,6.47
2019-03-26T13:13:02.213Z,24.13
2019-03-26T13:15:34.361Z,7.47
2019-03-26T13:18:06.403Z,7.67
2019-03-26T13:20:41.318Z,7.43
2019-03-26T13:23:14.097Z,7.80
2019-03-26T13:25:47.340Z,7.20
2019-03-26T13:28:19.790Z,7.30
2019-03-26T13:30:57.800Z,7.10
2019-03-26T13:33:30.317Z,7.77
2019-03-26T13:36:04.367Z,7.50
2019-03-26T13:38:37.557Z,7.00
2019-03-26T13:41:11.357Z,7.10
2019-03-26T13:43:45.479Z,7.47
2019-03-26T13:46:19.768Z,6.70
2019-03-26T13:48:55.860Z,8.20
2019-03-26T13:51:30.429Z,7.53
2019-03-26T13:54:04.015Z,7.90
2019-03-26T13:56:40.138Z,7.40
2019-03-26T13:59:12.963Z,6.83
2019-03-26T14:01:44.806Z,6.93
2019-03-26T14:04:17.620Z,6.80
2019-03-26T14:06:54.073Z,7.50
2019-03-26T14:09:28.200Z,6.30
2019-03-26T14:12:01.481Z,7.30
2019-03-26T14:14:33.330Z,7.00
2019-03-26T14:17:06.720Z,6.80
2019-03-26T14:19:44.000Z,6.90
2019-03-26T14:22:17.800Z,7.33
2019-03-26T14:24:50.634Z,7.90
2019-03-26T14:27:23.145Z,7.20
2019-03-26T14:29:56.842Z,6.23
2019-03-26T14:32:29.636Z,7.70
2019-03-26T14:35:02.184Z,7.33
2019-03-26T14:37:34.084Z,7.80
2019-03-26T14:40:09.277Z,6.20
2019-03-26T14:42:43.524Z,6.40
2019-03-26T14:45:16.747Z,7.07
2019-03-26T14:47:49.690Z,7.27
2019-03-26T14:50:23.639Z,6.70
2019-03-26T14:52:55.524Z,6.03
2019-03-26T14:55:29.778Z,6.08
2019-03-26T14:58:01.769Z,5.80
2019-03-26T15:00:37.329Z,6.40
2019-03-26T15:03:11.780Z,6.60
2019-03-26T15:05:44.790Z,6.95
2019-03-26T15:08:18.121Z,6.90
2019-03-26T15:10:50.946Z,6.20
2019-03-26T15:13:23.957Z,6.20
2019-03-26T15:15:58.924Z,6.57
2019-03-26T15:18:32.717Z,6.50
2019-03-26T15:21:05.953Z,6.70
2019-03-26T15:23:38.773Z,6.63
2019-03-26T15:26:11.746Z,6.70
2019-03-26T15:28:45.821Z,6.37
2019-03-26T15:31:19.785Z,6.50
2019-03-26T15:33:51.615Z,6.70
2019-03-26T15:36:24.199Z,6.37
2019-03-26T15:38:57.016Z,5.93
2019-03-26T15:41:30.558Z,6.15
2019-03-26T15:44:03.849Z,6.07
2019-03-26T15:46:36.499Z,5.70
2019-03-26T15:49:09.097Z,6.50
2019-03-26T15:51:41.906Z,15.00
2019-03-26T15:54:14.858Z,6.00
2019-03-26T15:56:47.833Z,6.27
2019-03-26T15:59:20.901Z,6.23
2019-03-26T16:01:54.664Z,5.50
2019-03-26T16:04:29.288Z,5.33
2019-03-26T16:07:02.982Z,7.00
2019-03-26T16:09:36.891Z,5.80
2019-03-26T16:12:10.113Z,5.77
2019-03-26T16:14:43.950Z,5.80
2019-03-26T16:17:15.854Z,6.43
2019-03-26T16:19:49.983Z,5.93
2019-03-26T16:22:22.927Z,6.00
2019-03-26T16:24:56.442Z,5.77
2019-03-26T16:27:29.065Z,5.47
2019-03-26T16:30:02.550Z,6.50
2019-03-26T16:32:36.842Z,6.10
2019-03-26T16:35:10.237Z,6.57
2019-03-26T16:37:44.020Z,6.27
2019-03-26T16:40:17.123Z,5.77
2019-03-26T16:42:49.268Z,6.17
2019-03-26T16:45:23.405Z,6.95
2019-03-26T16:47:56.097Z,6.40
2019-03-26T16:50:29.179Z,6.57
2019-03-26T16:53:04.941Z,6.40
2019-03-26T16:55:39.431Z,6.10
2019-03-26T16:58:14.123Z,6.87
2019-03-26T17:00:49.312Z,7.00
2019-03-26T17:03:31.268Z,19.93
2019-03-26T17:05:58.430Z,25.00
2019-03-26T17:08:32.137Z,7.80
2019-03-26T17:11:05.915Z,7.27
2019-03-26T17:13:39.329Z,6.87
2019-03-26T17:16:15.786Z,8.37
2019-03-26T17:18:48.288Z,6.90
2019-03-26T17:21:20.297Z,7.45
2019-03-26T17:23:54.261Z,7.10
2019-03-26T17:26:26.304Z,9.20
2019-03-26T17:28:59.286Z,7.77
2019-03-26T17:31:32.970Z,7.83
2019-03-26T17:34:05.343Z,7.40
2019-03-26T17:36:38.728Z,6.20
2019-03-26T17:39:13.359Z,6.97
2019-03-26T17:41:47.298Z,6.80
2019-03-26T17:44:20.659Z,7.20
2019-03-26T17:46:54.666Z,6.27
2019-03-26T17:49:28.435Z,7.08
2019-03-26T17:52:02.640Z,6.93
2019-03-26T17:54:36.534Z,7.27
2019-03-26T17:57:11.275Z,6.30
2019-03-26T17:59:45.558Z,6.40
2019-03-26T18:02:18.607Z,6.97
2019-03-26T18:04:53.514Z,7.33
2019-03-26T18:07:26.440Z,7.20
2019-03-26T18:09:58.410Z,8.77
2019-03-26T18:12:31.360Z,7.37
2019-03-26T18:15:07.516Z,7.73
2019-03-26T18:17:39.407Z,7.77
2019-03-26T18:20:13.410Z,7.43
2019-03-26T18:22:49.357Z,7.30
2019-03-26T18:25:24.891Z,8.57
2019-03-26T18:28:02.569Z,9.60
2019-03-26T18:30:36.552Z,30.27
2019-03-26T18:33:10.505Z,10.23
2019-03-26T18:35:44.643Z,8.73
2019-03-26T18:38:16.913Z,9.77
2019-03-26T18:40:50.610Z,9.10
2019-03-26T18:43:23.677Z,8.78
2019-03-26T18:45:56.694Z,9.10
2019-03-26T18:48:30.618Z,8.67
2019-03-26T18:51:02.794Z,8.47
2019-03-26T18:53:35.800Z,9.03
2019-03-26T18:56:08.722Z,9.17
2019-03-26T18:58:41.677Z,8.57
2019-03-26T19:01:15.611Z,9.33
2019-03-26T19:03:49.307Z,9.40
2019-03-26T19:06:23.742Z,8.53
2019-03-26T19:08:56.985Z,9.73
2019-03-26T19:11:29.912Z,10.50
2019-03-26T19:14:03.100Z,9.10
2019-03-26T19:16:36.031Z,9.00
2019-03-26T19:19:10.689Z,8.43
2019-03-26T19:21:44.430Z,10.23
2019-03-26T19:24:21.278Z,8.37
2019-03-26T19:26:54.962Z,9.13
2019-03-26T19:29:30.725Z,8.10
2019-03-26T19:32:03.827Z,8.37
2019-03-26T19:34:37.140Z,9.18
2019-03-26T19:37:12.010Z,11.00
2019-03-26T19:39:45.782Z,9.63
2019-03-26T19:42:17.954Z,9.47
2019-03-26T19:44:52.946Z,9.45
2019-03-26T19:47:27.482Z,9.07
2019-03-26T19:50:00.331Z,10.53
2019-03-26T19:52:35.170Z,10.07
2019-03-26T19:55:10.533Z,10.05
2019-03-26T19:57:43.002Z,10.30
2019-03-26T20:00:15.872Z,8.90
2019-03-26T20:02:49.611Z,10.30
2019-03-26T20:05:21.889Z,9.70
2019-03-26T20:07:56.122Z,9.33
2019-03-26T20:10:28.179Z,9.90
2019-03-26T20:13:03.333Z,9.83
2019-03-26T20:15:36.247Z,8.90
2019-03-26T20:18:09.152Z,10.30
2019-03-26T20:20:43.001Z,10.30
2019-03-26T20:23:16.207Z,8.77
2019-03-26T20:25:50.707Z,10.00
2019-03-26T20:28:27.261Z,9.63
2019-03-26T20:31:00.164Z,9.97
2019-03-26T20:33:32.526Z,9.57
2019-03-26T20:36:06.634Z,9.60
2019-03-26T20:38:39.220Z,10.67
2019-03-26T20:41:13.257Z,9.77
2019-03-26T20:43:45.344Z,9.97
2019-03-26T20:46:19.200Z,9.67
2019-03-26T20:48:54.186Z,9.53
2019-03-26T20:51:26.033Z,9.17
2019-03-26T20:53:58.271Z,10.00
2019-03-26T20:56:30.276Z,9.90
2019-03-26T20:59:04.372Z,9.83
2019-03-26T21:01:39.162Z,8.80
2019-03-26T21:04:11.332Z,9.60
2019-03-26T21:06:44.603Z,9.70
2019-03-26T21:09:18.408Z,10.27
2019-03-26T21:11:50.395Z,8.40
2019-03-26T21:14:24.214Z,8.70
2019-03-26T21:16:56.309Z,9.20
2019-03-26T21:19:30.162Z,10.30
2019-03-26T21:22:04.285Z,9.33
2019-03-26T21:24:38.876Z,8.90
2019-03-26T21:27:14.371Z,8.53
2019-03-26T21:29:48.881Z,8.53
2019-03-26T21:32:22.129Z,10.47
2019-03-26T21:34:55.036Z,9.25
2019-03-26T21:37:30.574Z,8.30
2019-03-26T21:40:03.995Z,8.90
2019-03-26T21:42:36.931Z,9.13
2019-03-26T21:45:14.098Z,9.40
2019-03-26T21:47:49.359Z,9.67
2019-03-26T21:50:21.749Z,8.40
2019-03-26T21:52:56.861Z,8.90
2019-03-26T21:55:29.976Z,8.50
2019-03-26T21:58:03.945Z,7.97
2019-03-26T22:00:38.020Z,8.83
2019-03-26T22:03:11.889Z,7.93
2019-03-26T22:05:47.987Z,8.27
2019-03-26T22:08:20.990Z,8.97
2019-03-26T22:10:57.565Z,8.23
2019-03-26T22:13:29.979Z,7.70
2019-03-26T22:16:05.181Z,8.20
2019-03-26T22:18:38.878Z,8.03
2019-03-26T22:21:15.611Z,8.20
2019-03-26T22:23:49.132Z,8.43
2019-03-26T22:26:21.582Z,7.07
2019-03-26T22:28:56.029Z,7.30
2019-03-26T22:31:30.146Z,7.08
2019-03-26T22:34:04.250Z,7.53
2019-03-26T22:36:37.680Z,8.07
2019-03-26T22:39:12.328Z,7.83
2019-03-26T22:41:45.244Z,6.83
2019-03-26T22:44:30.753Z,7.20
2019-03-26T22:46:54.264Z,6.85
2019-03-26T22:49:27.833Z,7.07
2019-03-26T22:52:01.457Z,7.43
2019-03-26T22:54:36.296Z,6.60
2019-03-26T22:57:09.515Z,6.90
2019-03-26T22:59:42.510Z,6.97
2019-03-26T23:02:15.335Z,6.30
2019-03-26T23:04:49.462Z,6.93
2019-03-26T23:07:21.937Z,7.23
2019-03-26T23:09:57.380Z,6.80
2019-03-26T23:12:30.349Z,6.93
2019-03-26T23:15:06.331Z,5.80
2019-03-26T23:17:41.914Z,6.60
2019-03-26T23:20:14.531Z,5.90
2019-03-26T23:22:48.550Z,6.37
2019-03-26T23:25:21.240Z,5.17
2019-03-26T23:27:55.378Z,5.70
2019-03-26T23:30:30.406Z,5.70
2019-03-26T23:33:06.813Z,6.20
2019-03-26T23:35:40.442Z,5.97
2019-03-26T23:38:17.285Z,5.47
2019-03-26T23:40:51.448Z,5.30
2019-03-26T23:43:24.342Z,5.97
2019-03-26T23:45:57.510Z,5.67
2019-03-26T23:48:31.688Z,5.40
2019-03-26T23:51:04.004Z,5.27
2019-03-26T23:53:36.604Z,5.20
2019-03-26T23:56:10.417Z,4.87
2019-03-26T23:58:44.976Z,5.43
